sensor_id;sensor_type;location;lat;lon;timestamp;P1;durP1;ratioP1;P2;durP2;ratioP2
22995;SDS011;11664;49.774;8.650;2024-02-26T00:02:00;2.53;;;2.42;;
22995;SDS011;11664;49.774;8.650;2024-02-26T00:04:31;2.75;;;2.65;;
22995;SDS011;11664;49.774;8.650;2024-02-26T00:07:00;2.33;;;2.22;;
22995;SDS011;11664;49.774;8.650;2024-02-26T00:09:29;2.95;;;2.85;;
22995;SDS011;11664;49.774;8.650;2024-02-26T00:12:12;2.85;;;2.55;;
22995;SDS011;11664;49.774;8.650;2024-02-26T00:14:40;2.42;;;2.33;;
22995;SDS011;11664;49.774;8.650;2024-02-26T00:17:11;2.70;;;2.60;;
22995;SDS011;11664;49.774;8.650;2024-02-26T00:19:42;2.75;;;2.65;;
22995;SDS011;11664;49.774;8.650;2024-02-26T00:22:08;2.70;;;2.53;;
22995;SDS011;11664;49.774;8.650;2024-02-26T00:24:36;2.90;;;2.70;;
22995;SDS011;11664;49.774;8.650;2024-02-26T00:27:02;3.85;;;3.58;;
22995;SDS011;11664;49.774;8.650;2024-02-26T00:29:28;6.22;;;4.55;;
22995;SDS011;11664;49.774;8.650;2024-02-26T00:31:57;3.85;;;3.65;;
22995;SDS011;11664;49.774;8.650;2024-02-26T00:34:25;3.85;;;3.65;;
22995;SDS011;11664;49.774;8.650;2024-02-26T00:36:51;4.88;;;4.60;;
22995;SDS011;11664;49.774;8.650;2024-02-26T00:39:16;4.80;;;4.50;;
22995;SDS011;11664;49.774;8.650;2024-02-26T00:41:48;5.00;;;4.70;;
22995;SDS011;11664;49.774;8.650;2024-02-26T00:44:13;4.00;;;3.67;;
22995;SDS011;11664;49.774;8.650;2024-02-26T00:46:45;3.15;;;2.95;;
22995;SDS011;11664;49.774;8.650;2024-02-26T00:49:13;2.72;;;2.63;;
22995;SDS011;11664;49.774;8.650;2024-02-26T00:51:45;3.47;;;3.28;;
22995;SDS011;11664;49.774;8.650;2024-02-26T00:54:10;3.60;;;3.40;;
22995;SDS011;11664;49.774;8.650;2024-02-26T00:56:36;3.10;;;2.90;;
22995;SDS011;11664;49.774;8.650;2024-02-26T00:59:01;3.15;;;3.05;;
22995;SDS011;11664;49.774;8.650;2024-02-26T01:01:27;2.65;;;2.55;;
22995;SDS011;11664;49.774;8.650;2024-02-26T01:03:52;3.00;;;2.80;;
22995;SDS011;11664;49.774;8.650;2024-02-26T01:06:21;3.22;;;3.03;;
22995;SDS011;11664;49.774;8.650;2024-02-26T01:08:53;3.03;;;2.90;;
22995;SDS011;11664;49.774;8.650;2024-02-26T01:11:34;2.95;;;2.85;;
22995;SDS011;11664;49.774;8.650;2024-02-26T01:14:06;3.00;;;2.80;;
22995;SDS011;11664;49.774;8.650;2024-02-26T01:16:31;3.03;;;2.83;;
22995;SDS011;11664;49.774;8.650;2024-02-26T01:19:06;3.22;;;3.13;;
22995;SDS011;11664;49.774;8.650;2024-02-26T01:21:34;3.22;;;3.03;;
22995;SDS011;11664;49.774;8.650;2024-02-26T01:24:06;3.28;;;3.17;;
22995;SDS011;11664;49.774;8.650;2024-02-26T01:26:32;3.67;;;3.47;;
22995;SDS011;11664;49.774;8.650;2024-02-26T01:29:00;3.42;;;3.25;;
22995;SDS011;11664;49.774;8.650;2024-02-26T01:31:26;3.38;;;3.17;;
22995;SDS011;11664;49.774;8.650;2024-02-26T01:33:51;4.05;;;3.85;;
22995;SDS011;11664;49.774;8.650;2024-02-26T01:36:17;3.42;;;3.33;;
22995;SDS011;11664;49.774;8.650;2024-02-26T01:38:43;3.40;;;3.25;;
22995;SDS011;11664;49.774;8.650;2024-02-26T01:41:15;3.38;;;3.17;;
22995;SDS011;11664;49.774;8.650;2024-02-26T01:43:40;3.88;;;3.67;;
22995;SDS011;11664;49.774;8.650;2024-02-26T01:46:24;2.63;;;2.53;;
22995;SDS011;11664;49.774;8.650;2024-02-26T01:48:50;2.80;;;2.60;;
22995;SDS011;11664;49.774;8.650;2024-02-26T01:51:19;2.45;;;2.35;;
22995;SDS011;11664;49.774;8.650;2024-02-26T01:53:47;3.45;;;3.20;;
22995;SDS011;11664;49.774;8.650;2024-02-26T01:56:13;3.22;;;3.13;;
22995;SDS011;11664;49.774;8.650;2024-02-26T01:58:51;2.90;;;2.80;;
22995;SDS011;11664;49.774;8.650;2024-02-26T02:01:16;2.60;;;2.50;;
22995;SDS011;11664;49.774;8.650;2024-02-26T02:03:44;3.25;;;3.05;;
22995;SDS011;11664;49.774;8.650;2024-02-26T02:06:10;3.25;;;3.05;;
22995;SDS011;11664;49.774;8.650;2024-02-26T02:08:39;2.80;;;2.67;;
22995;SDS011;11664;49.774;8.650;2024-02-26T02:11:08;3.30;;;3.10;;
22995;SDS011;11664;49.774;8.650;2024-02-26T02:13:36;3.60;;;3.30;;
22995;SDS011;11664;49.774;8.650;2024-02-26T02:16:08;6.45;;;3.20;;
22995;SDS011;11664;49.774;8.650;2024-02-26T02:18:36;3.42;;;3.22;;
22995;SDS011;11664;49.774;8.650;2024-02-26T02:21:04;3.50;;;3.28;;
22995;SDS011;11664;49.774;8.650;2024-02-26T02:23:30;2.60;;;2.50;;
22995;SDS011;11664;49.774;8.650;2024-02-26T02:25:56;2.70;;;2.50;;
22995;SDS011;11664;49.774;8.650;2024-02-26T02:28:23;3.10;;;2.90;;
22995;SDS011;11664;49.774;8.650;2024-02-26T02:30:53;3.55;;;3.35;;
22995;SDS011;11664;49.774;8.650;2024-02-26T02:33:23;2.85;;;2.75;;
22995;SDS011;11664;49.774;8.650;2024-02-26T02:35:51;5.60;;;5.30;;
22995;SDS011;11664;49.774;8.650;2024-02-26T02:38:19;4.00;;;3.80;;
22995;SDS011;11664;49.774;8.650;2024-02-26T02:40:44;5.32;;;4.35;;
22995;SDS011;11664;49.774;8.650;2024-02-26T02:43:13;4.75;;;4.53;;
22995;SDS011;11664;49.774;8.650;2024-02-26T02:45:42;6.82;;;6.43;;
22995;SDS011;11664;49.774;8.650;2024-02-26T02:48:08;8.10;;;7.68;;
22995;SDS011;11664;49.774;8.650;2024-02-26T02:50:39;4.90;;;4.63;;
22995;SDS011;11664;49.774;8.650;2024-02-26T02:53:11;3.95;;;3.75;;
22995;SDS011;11664;49.774;8.650;2024-02-26T02:55:36;2.70;;;2.58;;
22995;SDS011;11664;49.774;8.650;2024-02-26T02:58:08;3.15;;;3.05;;
22995;SDS011;11664;49.774;8.650;2024-02-26T03:00:34;4.38;;;4.07;;
22995;SDS011;11664;49.774;8.650;2024-02-26T03:03:02;5.57;;;4.53;;
22995;SDS011;11664;49.774;8.650;2024-02-26T03:05:29;4.75;;;4.55;;
22995;SDS011;11664;49.774;8.650;2024-02-26T03:07:54;4.93;;;4.65;;
22995;SDS011;11664;49.774;8.650;2024-02-26T03:10:20;4.78;;;4.55;;
22995;SDS011;11664;49.774;8.650;2024-02-26T03:12:45;6.05;;;5.57;;
22995;SDS011;11664;49.774;8.650;2024-02-26T03:15:20;4.38;;;4.07;;
22995;SDS011;11664;49.774;8.650;2024-02-26T03:17:49;5.50;;;3.45;;
22995;SDS011;11664;49.774;8.650;2024-02-26T03:20:17;3.75;;;3.45;;
22995;SDS011;11664;49.774;8.650;2024-02-26T03:22:44;4.22;;;3.97;;
22995;SDS011;11664;49.774;8.650;2024-02-26T03:25:13;4.07;;;3.88;;
22995;SDS011;11664;49.774;8.650;2024-02-26T03:27:42;6.75;;;6.35;;
22995;SDS011;11664;49.774;8.650;2024-02-26T03:30:19;9.70;;;9.20;;
22995;SDS011;11664;49.774;8.650;2024-02-26T03:32:45;6.47;;;6.13;;
22995;SDS011;11664;49.774;8.650;2024-02-26T03:35:11;7.25;;;6.85;;
22995;SDS011;11664;49.774;8.650;2024-02-26T03:37:40;5.82;;;5.25;;
22995;SDS011;11664;49.774;8.650;2024-02-26T03:40:06;4.22;;;4.03;;
22995;SDS011;11664;49.774;8.650;2024-02-26T03:42:38;5.85;;;5.55;;
22995;SDS011;11664;49.774;8.650;2024-02-26T03:45:13;8.75;;;8.20;;
22995;SDS011;11664;49.774;8.650;2024-02-26T03:47:41;10.25;;;9.68;;
22995;SDS011;11664;49.774;8.650;2024-02-26T03:50:07;6.22;;;5.72;;
22995;SDS011;11664;49.774;8.650;2024-02-26T03:52:36;5.15;;;4.85;;
22995;SDS011;11664;49.774;8.650;2024-02-26T03:55:01;5.57;;;5.28;;
22995;SDS011;11664;49.774;8.650;2024-02-26T03:57:30;5.38;;;5.07;;
22995;SDS011;11664;49.774;8.650;2024-02-26T03:59:56;5.82;;;5.35;;
22995;SDS011;11664;49.774;8.650;2024-02-26T04:02:21;11.60;;;10.98;;
22995;SDS011;11664;49.774;8.650;2024-02-26T04:04:48;5.30;;;4.88;;
22995;SDS011;11664;49.774;8.650;2024-02-26T04:07:26;5.38;;;5.07;;
22995;SDS011;11664;49.774;8.650;2024-02-26T04:10:10;6.00;;;5.70;;
22995;SDS011;11664;49.774;8.650;2024-02-26T04:12:42;7.88;;;7.50;;
22995;SDS011;11664;49.774;8.650;2024-02-26T04:15:17;6.65;;;6.30;;
22995;SDS011;11664;49.774;8.650;2024-02-26T04:17:43;5.60;;;5.30;;
22995;SDS011;11664;49.774;8.650;2024-02-26T04:20:12;7.32;;;6.93;;
22995;SDS011;11664;49.774;8.650;2024-02-26T04:22:40;11.02;;;10.13;;
22995;SDS011;11664;49.774;8.650;2024-02-26T04:25:24;12.82;;;11.95;;
22995;SDS011;11664;49.774;8.650;2024-02-26T04:27:53;14.40;;;12.60;;
22995;SDS011;11664;49.774;8.650;2024-02-26T04:30:28;11.05;;;10.13;;
22995;SDS011;11664;49.774;8.650;2024-02-26T04:32:54;11.57;;;10.77;;
22995;SDS011;11664;49.774;8.650;2024-02-26T04:35:19;8.55;;;7.85;;
22995;SDS011;11664;49.774;8.650;2024-02-26T04:37:48;8.00;;;7.25;;
22995;SDS011;11664;49.774;8.650;2024-02-26T04:40:13;10.07;;;8.90;;
22995;SDS011;11664;49.774;8.650;2024-02-26T04:42:45;9.43;;;8.63;;
22995;SDS011;11664;49.774;8.650;2024-02-26T04:45:17;5.93;;;5.47;;
22995;SDS011;11664;49.774;8.650;2024-02-26T04:47:42;9.63;;;8.90;;
22995;SDS011;11664;49.774;8.650;2024-02-26T04:50:10;10.50;;;9.80;;
22995;SDS011;11664;49.774;8.650;2024-02-26T04:52:36;7.10;;;6.60;;
22995;SDS011;11664;49.774;8.650;2024-02-26T04:55:05;7.97;;;7.47;;
22995;SDS011;11664;49.774;8.650;2024-02-26T04:57:30;8.90;;;8.45;;
22995;SDS011;11664;49.774;8.650;2024-02-26T04:59:56;7.55;;;7.15;;
22995;SDS011;11664;49.774;8.650;2024-02-26T05:02:27;6.45;;;6.15;;
22995;SDS011;11664;49.774;8.650;2024-02-26T05:04:58;5.22;;;4.97;;
22995;SDS011;11664;49.774;8.650;2024-02-26T05:07:31;3.90;;;3.70;;
22995;SDS011;11664;49.774;8.650;2024-02-26T05:09:59;5.80;;;5.50;;
22995;SDS011;11664;49.774;8.650;2024-02-26T05:12:28;7.22;;;6.88;;
22995;SDS011;11664;49.774;8.650;2024-02-26T05:14:54;7.45;;;7.10;;
22995;SDS011;11664;49.774;8.650;2024-02-26T05:17:22;6.90;;;6.57;;
22995;SDS011;11664;49.774;8.650;2024-02-26T05:19:53;5.88;;;5.57;;
22995;SDS011;11664;49.774;8.650;2024-02-26T05:22:18;5.63;;;5.32;;
22995;SDS011;11664;49.774;8.650;2024-02-26T05:24:47;7.70;;;7.35;;
22995;SDS011;11664;49.774;8.650;2024-02-26T05:27:12;8.80;;;8.40;;
22995;SDS011;11664;49.774;8.650;2024-02-26T05:29:41;10.65;;;10.15;;
22995;SDS011;11664;49.774;8.650;2024-02-26T05:32:09;8.70;;;8.30;;
22995;SDS011;11664;49.774;8.650;2024-02-26T05:34:35;9.50;;;9.05;;
22995;SDS011;11664;49.774;8.650;2024-02-26T05:37:01;8.23;;;7.82;;
22995;SDS011;11664;49.774;8.650;2024-02-26T05:39:26;6.57;;;6.28;;
22995;SDS011;11664;49.774;8.650;2024-02-26T05:41:52;13.13;;;12.32;;
22995;SDS011;11664;49.774;8.650;2024-02-26T05:44:25;8.07;;;7.70;;
22995;SDS011;11664;49.774;8.650;2024-02-26T05:46:57;9.63;;;9.13;;
22995;SDS011;11664;49.774;8.650;2024-02-26T05:49:26;6.60;;;6.30;;
22995;SDS011;11664;49.774;8.650;2024-02-26T05:51:55;7.05;;;6.75;;
22995;SDS011;11664;49.774;8.650;2024-02-26T05:54:32;7.32;;;6.97;;
22995;SDS011;11664;49.774;8.650;2024-02-26T05:57:01;5.30;;;5.00;;
22995;SDS011;11664;49.774;8.650;2024-02-26T05:59:27;6.70;;;6.20;;
22995;SDS011;11664;49.774;8.650;2024-02-26T06:02:01;6.75;;;6.25;;
22995;SDS011;11664;49.774;8.650;2024-02-26T06:04:30;7.15;;;6.65;;
22995;SDS011;11664;49.774;8.650;2024-02-26T06:07:11;7.07;;;6.68;;
22995;SDS011;11664;49.774;8.650;2024-02-26T06:09:36;9.32;;;8.82;;
22995;SDS011;11664;49.774;8.650;2024-02-26T06:12:08;13.07;;;12.45;;
22995;SDS011;11664;49.774;8.650;2024-02-26T06:14:43;10.07;;;9.60;;
22995;SDS011;11664;49.774;8.650;2024-02-26T06:17:15;12.45;;;11.82;;
22995;SDS011;11664;49.774;8.650;2024-02-26T06:19:44;11.85;;;11.25;;
22995;SDS011;11664;49.774;8.650;2024-02-26T06:22:13;11.43;;;10.82;;
22995;SDS011;11664;49.774;8.650;2024-02-26T06:24:41;10.07;;;9.57;;
22995;SDS011;11664;49.774;8.650;2024-02-26T06:27:07;14.60;;;13.90;;
22995;SDS011;11664;49.774;8.650;2024-02-26T06:29:35;11.60;;;11.02;;
22995;SDS011;11664;49.774;8.650;2024-02-26T06:32:00;9.35;;;8.85;;
22995;SDS011;11664;49.774;8.650;2024-02-26T06:34:26;6.72;;;6.22;;
22995;SDS011;11664;49.774;8.650;2024-02-26T06:36:55;7.82;;;7.43;;
22995;SDS011;11664;49.774;8.650;2024-02-26T06:39:23;11.68;;;11.07;;
22995;SDS011;11664;49.774;8.650;2024-02-26T06:41:49;7.50;;;7.20;;
22995;SDS011;11664;49.774;8.650;2024-02-26T06:44:14;6.90;;;6.60;;
22995;SDS011;11664;49.774;8.650;2024-02-26T06:46:40;7.88;;;7.47;;
22995;SDS011;11664;49.774;8.650;2024-02-26T06:49:05;6.45;;;6.15;;
22995;SDS011;11664;49.774;8.650;2024-02-26T06:51:31;7.53;;;7.20;;
22995;SDS011;11664;49.774;8.650;2024-02-26T06:53:56;6.95;;;6.55;;
22995;SDS011;11664;49.774;8.650;2024-02-26T06:56:22;5.82;;;5.53;;
22995;SDS011;11664;49.774;8.650;2024-02-26T06:58:47;5.75;;;5.45;;
22995;SDS011;11664;49.774;8.650;2024-02-26T07:01:13;5.55;;;5.32;;
22995;SDS011;11664;49.774;8.650;2024-02-26T07:03:41;7.05;;;6.72;;
22995;SDS011;11664;49.774;8.650;2024-02-26T07:06:07;6.93;;;6.63;;
22995;SDS011;11664;49.774;8.650;2024-02-26T07:08:58;7.60;;;7.30;;
22995;SDS011;11664;49.774;8.650;2024-02-26T07:11:24;5.88;;;5.57;;
22995;SDS011;11664;49.774;8.650;2024-02-26T07:13:49;6.93;;;6.53;;
22995;SDS011;11664;49.774;8.650;2024-02-26T07:16:15;7.72;;;7.32;;
22995;SDS011;11664;49.774;8.650;2024-02-26T07:18:41;9.13;;;8.70;;
22995;SDS011;11664;49.774;8.650;2024-02-26T07:21:08;7.13;;;6.82;;
22995;SDS011;11664;49.774;8.650;2024-02-26T07:23:34;6.57;;;6.28;;
22995;SDS011;11664;49.774;8.650;2024-02-26T07:26:00;8.73;;;8.25;;
22995;SDS011;11664;49.774;8.650;2024-02-26T07:28:26;7.70;;;7.35;;
22995;SDS011;11664;49.774;8.650;2024-02-26T07:30:52;5.47;;;5.22;;
22995;SDS011;11664;49.774;8.650;2024-02-26T07:33:17;5.78;;;5.47;;
22995;SDS011;11664;49.774;8.650;2024-02-26T07:35:43;7.03;;;6.70;;
22995;SDS011;11664;49.774;8.650;2024-02-26T07:38:09;11.68;;;11.13;;
22995;SDS011;11664;49.774;8.650;2024-02-26T07:40:34;8.70;;;8.30;;
22995;SDS011;11664;49.774;8.650;2024-02-26T07:43:00;6.43;;;6.13;;
22995;SDS011;11664;49.774;8.650;2024-02-26T07:45:25;6.25;;;5.95;;
22995;SDS011;11664;49.774;8.650;2024-02-26T07:47:51;9.20;;;8.80;;
22995;SDS011;11664;49.774;8.650;2024-02-26T07:50:17;10.57;;;10.07;;
22995;SDS011;11664;49.774;8.650;2024-02-26T07:52:43;6.80;;;6.43;;
22995;SDS011;11664;49.774;8.650;2024-02-26T07:55:09;5.90;;;5.60;;
22995;SDS011;11664;49.774;8.650;2024-02-26T07:57:44;15.40;;;14.68;;
22995;SDS011;11664;49.774;8.650;2024-02-26T08:00:19;10.75;;;10.15;;
22995;SDS011;11664;49.774;8.650;2024-02-26T08:02:48;11.13;;;10.57;;
22995;SDS011;11664;49.774;8.650;2024-02-26T08:05:16;19.42;;;18.48;;
22995;SDS011;11664;49.774;8.650;2024-02-26T08:07:45;20.65;;;19.63;;
22995;SDS011;11664;49.774;8.650;2024-02-26T08:10:14;10.30;;;9.80;;
22995;SDS011;11664;49.774;8.650;2024-02-26T08:12:42;5.75;;;5.50;;
22995;SDS011;11664;49.774;8.650;2024-02-26T08:15:14;17.90;;;17.02;;
22995;SDS011;11664;49.774;8.650;2024-02-26T08:17:45;11.95;;;11.35;;
22995;SDS011;11664;49.774;8.650;2024-02-26T08:20:31;7.63;;;7.22;;
22995;SDS011;11664;49.774;8.650;2024-02-26T08:23:00;10.07;;;9.57;;
22995;SDS011;11664;49.774;8.650;2024-02-26T08:25:31;9.93;;;9.48;;
22995;SDS011;11664;49.774;8.650;2024-02-26T08:28:00;5.18;;;4.88;;
22995;SDS011;11664;49.774;8.650;2024-02-26T08:30:26;6.22;;;5.93;;
22995;SDS011;11664;49.774;8.650;2024-02-26T08:32:52;7.05;;;6.75;;
22995;SDS011;11664;49.774;8.650;2024-02-26T08:35:23;7.30;;;7.00;;
22995;SDS011;11664;49.774;8.650;2024-02-26T08:37:58;4.63;;;4.43;;
22995;SDS011;11664;49.774;8.650;2024-02-26T08:40:24;10.18;;;9.60;;
22995;SDS011;11664;49.774;8.650;2024-02-26T08:42:55;10.50;;;10.02;;
22995;SDS011;11664;49.774;8.650;2024-02-26T08:45:27;11.35;;;10.82;;
22995;SDS011;11664;49.774;8.650;2024-02-26T08:47:53;9.40;;;8.88;;
22995;SDS011;11664;49.774;8.650;2024-02-26T08:50:18;5.85;;;5.55;;
22995;SDS011;11664;49.774;8.650;2024-02-26T08:52:47;4.63;;;4.35;;
22995;SDS011;11664;49.774;8.650;2024-02-26T08:55:21;12.38;;;11.77;;
22995;SDS011;11664;49.774;8.650;2024-02-26T08:57:47;5.18;;;4.88;;
22995;SDS011;11664;49.774;8.650;2024-02-26T09:00:13;8.07;;;7.65;;
22995;SDS011;11664;49.774;8.650;2024-02-26T09:02:40;5.57;;;5.28;;
22995;SDS011;11664;49.774;8.650;2024-02-26T09:05:08;5.15;;;4.78;;
22995;SDS011;11664;49.774;8.650;2024-02-26T09:07:40;5.30;;;4.93;;
22995;SDS011;11664;49.774;8.650;2024-02-26T09:10:06;3.92;;;3.72;;
22995;SDS011;11664;49.774;8.650;2024-02-26T09:12:38;3.85;;;3.65;;
22995;SDS011;11664;49.774;8.650;2024-02-26T09:15:05;4.30;;;3.85;;
22995;SDS011;11664;49.774;8.650;2024-02-26T09:17:31;3.70;;;3.50;;
22995;SDS011;11664;49.774;8.650;2024-02-26T09:19:57;3.50;;;3.30;;
22995;SDS011;11664;49.774;8.650;2024-02-26T09:22:22;3.85;;;3.65;;
22995;SDS011;11664;49.774;8.650;2024-02-26T09:24:48;3.67;;;3.47;;
22995;SDS011;11664;49.774;8.650;2024-02-26T09:27:15;3.40;;;3.20;;
22995;SDS011;11664;49.774;8.650;2024-02-26T09:29:41;4.80;;;3.67;;
22995;SDS011;11664;49.774;8.650;2024-02-26T09:32:07;6.20;;;4.60;;
22995;SDS011;11664;49.774;8.650;2024-02-26T09:34:32;5.05;;;4.70;;
22995;SDS011;11664;49.774;8.650;2024-02-26T09:36:58;6.68;;;6.07;;
22995;SDS011;11664;49.774;8.650;2024-02-26T09:39:25;7.68;;;7.07;;
22995;SDS011;11664;49.774;8.650;2024-02-26T09:41:50;7.43;;;6.82;;
22995;SDS011;11664;49.774;8.650;2024-02-26T09:44:20;6.57;;;6.28;;
22995;SDS011;11664;49.774;8.650;2024-02-26T09:46:47;4.53;;;4.28;;
22995;SDS011;11664;49.774;8.650;2024-02-26T09:49:15;3.78;;;3.47;;
22995;SDS011;11664;49.774;8.650;2024-02-26T09:51:41;3.35;;;3.15;;
22995;SDS011;11664;49.774;8.650;2024-02-26T09:54:09;3.75;;;3.53;;
22995;SDS011;11664;49.774;8.650;2024-02-26T09:56:39;3.30;;;3.07;;
22995;SDS011;11664;49.774;8.650;2024-02-26T09:59:06;4.13;;;3.90;;
22995;SDS011;11664;49.774;8.650;2024-02-26T10:01:38;3.90;;;3.63;;
22995;SDS011;11664;49.774;8.650;2024-02-26T10:04:05;3.47;;;3.28;;
22995;SDS011;11664;49.774;8.650;2024-02-26T10:06:33;4.72;;;4.43;;
22995;SDS011;11664;49.774;8.650;2024-02-26T10:09:00;3.05;;;2.95;;
22995;SDS011;11664;49.774;8.650;2024-02-26T10:11:29;3.45;;;3.25;;
22995;SDS011;11664;49.774;8.650;2024-02-26T10:13:55;4.47;;;4.20;;
22995;SDS011;11664;49.774;8.650;2024-02-26T10:16:20;4.28;;;3.97;;
22995;SDS011;11664;49.774;8.650;2024-02-26T10:18:49;4.53;;;4.32;;
22995;SDS011;11664;49.774;8.650;2024-02-26T10:21:16;4.47;;;4.18;;
22995;SDS011;11664;49.774;8.650;2024-02-26T10:23:45;3.80;;;3.50;;
22995;SDS011;11664;49.774;8.650;2024-02-26T10:26:11;3.13;;;2.95;;
22995;SDS011;11664;49.774;8.650;2024-02-26T10:28:37;4.55;;;4.25;;
22995;SDS011;11664;49.774;8.650;2024-02-26T10:31:04;3.70;;;3.50;;
22995;SDS011;11664;49.774;8.650;2024-02-26T10:33:29;4.70;;;4.40;;
22995;SDS011;11664;49.774;8.650;2024-02-26T10:35:58;4.15;;;3.45;;
22995;SDS011;11664;49.774;8.650;2024-02-26T10:38:23;3.50;;;3.30;;
22995;SDS011;11664;49.774;8.650;2024-02-26T10:40:49;3.47;;;3.28;;
22995;SDS011;11664;49.774;8.650;2024-02-26T10:43:15;3.35;;;3.15;;
22995;SDS011;11664;49.774;8.650;2024-02-26T10:45:41;2.70;;;2.50;;
22995;SDS011;11664;49.774;8.650;2024-02-26T10:48:12;2.95;;;2.75;;
22995;SDS011;11664;49.774;8.650;2024-02-26T10:50:39;3.33;;;3.13;;
22995;SDS011;11664;49.774;8.650;2024-02-26T10:53:13;3.00;;;2.83;;
22995;SDS011;11664;49.774;8.650;2024-02-26T10:55:41;3.60;;;3.22;;
22995;SDS011;11664;49.774;8.650;2024-02-26T10:58:09;3.47;;;2.97;;
22995;SDS011;11664;49.774;8.650;2024-02-26T11:00:37;3.05;;;2.75;;
22995;SDS011;11664;49.774;8.650;2024-02-26T11:03:04;2.90;;;2.80;;
22995;SDS011;11664;49.774;8.650;2024-02-26T11:05:33;3.45;;;3.25;;
22995;SDS011;11664;49.774;8.650;2024-02-26T11:08:00;3.83;;;3.63;;
22995;SDS011;11664;49.774;8.650;2024-02-26T11:10:26;3.53;;;3.30;;
22995;SDS011;11664;49.774;8.650;2024-02-26T11:12:54;4.10;;;3.90;;
22995;SDS011;11664;49.774;8.650;2024-02-26T11:15:20;5.03;;;4.68;;
22995;SDS011;11664;49.774;8.650;2024-02-26T11:17:47;4.85;;;4.53;;
22995;SDS011;11664;49.774;8.650;2024-02-26T11:20:13;5.30;;;5.07;;
22995;SDS011;11664;49.774;8.650;2024-02-26T11:22:39;8.77;;;8.23;;
22995;SDS011;11664;49.774;8.650;2024-02-26T11:25:05;3.67;;;3.47;;
22995;SDS011;11664;49.774;8.650;2024-02-26T11:27:35;4.15;;;3.95;;
22995;SDS011;11664;49.774;8.650;2024-02-26T11:30:10;4.65;;;4.45;;
22995;SDS011;11664;49.774;8.650;2024-02-26T11:32:37;4.05;;;3.83;;
22995;SDS011;11664;49.774;8.650;2024-02-26T11:35:04;4.93;;;4.65;;
22995;SDS011;11664;49.774;8.650;2024-02-26T11:37:30;4.50;;;4.18;;
22995;SDS011;11664;49.774;8.650;2024-02-26T11:39:58;5.55;;;5.30;;
22995;SDS011;11664;49.774;8.650;2024-02-26T11:42:25;6.45;;;5.97;;
22995;SDS011;11664;49.774;8.650;2024-02-26T11:44:51;11.50;;;10.90;;
22995;SDS011;11664;49.774;8.650;2024-02-26T11:47:20;10.10;;;9.50;;
22995;SDS011;11664;49.774;8.650;2024-02-26T11:49:47;6.78;;;6.30;;
22995;SDS011;11664;49.774;8.650;2024-02-26T11:52:14;5.30;;;5.00;;
22995;SDS011;11664;49.774;8.650;2024-02-26T11:54:50;6.40;;;6.00;;
22995;SDS011;11664;49.774;8.650;2024-02-26T11:57:28;5.47;;;5.10;;
22995;SDS011;11664;49.774;8.650;2024-02-26T11:59:55;6.10;;;5.70;;
22995;SDS011;11664;49.774;8.650;2024-02-26T12:05:23;6.47;;;6.07;;
22995;SDS011;11664;49.774;8.650;2024-02-26T12:12:55;4.65;;;4.35;;
22995;SDS011;11664;49.774;8.650;2024-02-26T12:15:29;4.82;;;4.53;;
22995;SDS011;11664;49.774;8.650;2024-02-26T12:20:23;3.97;;;3.78;;
22995;SDS011;11664;49.774;8.650;2024-02-26T12:22:49;4.25;;;3.95;;
22995;SDS011;11664;49.774;8.650;2024-02-26T12:25:17;6.38;;;5.72;;
22995;SDS011;11664;49.774;8.650;2024-02-26T12:27:47;5.85;;;5.45;;
22995;SDS011;11664;49.774;8.650;2024-02-26T12:30:13;5.30;;;5.00;;
22995;SDS011;11664;49.774;8.650;2024-02-26T12:32:38;14.18;;;13.27;;
22995;SDS011;11664;49.774;8.650;2024-02-26T12:35:05;15.88;;;15.02;;
22995;SDS011;11664;49.774;8.650;2024-02-26T12:37:31;17.77;;;16.77;;
22995;SDS011;11664;49.774;8.650;2024-02-26T12:39:57;11.73;;;11.05;;
22995;SDS011;11664;49.774;8.650;2024-02-26T12:42:23;5.90;;;5.60;;
22995;SDS011;11664;49.774;8.650;2024-02-26T12:44:49;4.80;;;4.50;;
22995;SDS011;11664;49.774;8.650;2024-02-26T12:47:16;4.32;;;4.05;;
22995;SDS011;11664;49.774;8.650;2024-02-26T12:49:43;4.13;;;3.83;;
22995;SDS011;11664;49.774;8.650;2024-02-26T12:52:12;4.38;;;4.07;;
22995;SDS011;11664;49.774;8.650;2024-02-26T12:54:38;4.68;;;4.28;;
22995;SDS011;11664;49.774;8.650;2024-02-26T12:57:04;4.40;;;4.10;;
22995;SDS011;11664;49.774;8.650;2024-02-26T12:59:31;5.00;;;4.70;;
22995;SDS011;11664;49.774;8.650;2024-02-26T13:01:58;3.75;;;3.55;;
22995;SDS011;11664;49.774;8.650;2024-02-26T13:04:24;3.75;;;3.55;;
22995;SDS011;11664;49.774;8.650;2024-02-26T13:06:50;3.53;;;3.33;;
22995;SDS011;11664;49.774;8.650;2024-02-26T13:09:16;3.53;;;3.28;;
22995;SDS011;11664;49.774;8.650;2024-02-26T13:11:43;3.75;;;3.45;;
22995;SDS011;11664;49.774;8.650;2024-02-26T13:14:19;5.38;;;4.80;;
22995;SDS011;11664;49.774;8.650;2024-02-26T13:16:54;4.43;;;4.22;;
22995;SDS011;11664;49.774;8.650;2024-02-26T13:19:20;5.65;;;5.32;;
22995;SDS011;11664;49.774;8.650;2024-02-26T13:21:46;10.68;;;10.07;;
22995;SDS011;11664;49.774;8.650;2024-02-26T13:24:14;9.32;;;8.65;;
22995;SDS011;11664;49.774;8.650;2024-02-26T13:26:41;9.88;;;9.18;;
22995;SDS011;11664;49.774;8.650;2024-02-26T13:29:07;12.15;;;11.48;;
22995;SDS011;11664;49.774;8.650;2024-02-26T13:31:38;8.93;;;8.30;;
22995;SDS011;11664;49.774;8.650;2024-02-26T13:34:04;5.38;;;4.97;;
22995;SDS011;11664;49.774;8.650;2024-02-26T13:36:30;4.40;;;4.10;;
22995;SDS011;11664;49.774;8.650;2024-02-26T13:38:56;5.47;;;4.68;;
22995;SDS011;11664;49.774;8.650;2024-02-26T13:41:22;3.85;;;3.55;;
22995;SDS011;11664;49.774;8.650;2024-02-26T13:43:47;5.05;;;4.57;;
22995;SDS011;11664;49.774;8.650;2024-02-26T13:46:14;4.65;;;4.22;;
22995;SDS011;11664;49.774;8.650;2024-02-26T13:48:40;5.15;;;4.80;;
22995;SDS011;11664;49.774;8.650;2024-02-26T13:51:06;4.63;;;4.22;;
22995;SDS011;11664;49.774;8.650;2024-02-26T13:53:32;3.47;;;3.20;;
22995;SDS011;11664;49.774;8.650;2024-02-26T13:55:57;3.58;;;3.28;;
22995;SDS011;11664;49.774;8.650;2024-02-26T13:58:25;3.97;;;3.67;;
22995;SDS011;11664;49.774;8.650;2024-02-26T14:00:52;4.63;;;4.25;;
22995;SDS011;11664;49.774;8.650;2024-02-26T14:03:18;5.22;;;4.75;;
22995;SDS011;11664;49.774;8.650;2024-02-26T14:05:44;5.20;;;4.80;;
22995;SDS011;11664;49.774;8.650;2024-02-26T14:08:10;6.60;;;3.50;;
22995;SDS011;11664;49.774;8.650;2024-02-26T14:10:35;4.05;;;3.75;;
22995;SDS011;11664;49.774;8.650;2024-02-26T14:13:02;4.25;;;3.95;;
22995;SDS011;11664;49.774;8.650;2024-02-26T14:15:28;3.53;;;3.25;;
22995;SDS011;11664;49.774;8.650;2024-02-26T14:17:54;4.88;;;4.47;;
22995;SDS011;11664;49.774;8.650;2024-02-26T14:20:21;4.53;;;4.13;;
22995;SDS011;11664;49.774;8.650;2024-02-26T14:22:49;4.18;;;3.90;;
22995;SDS011;11664;49.774;8.650;2024-02-26T14:25:18;3.90;;;3.60;;
22995;SDS011;11664;49.774;8.650;2024-02-26T14:27:45;3.95;;;3.63;;
22995;SDS011;11664;49.774;8.650;2024-02-26T14:30:12;4.97;;;4.13;;
22995;SDS011;11664;49.774;8.650;2024-02-26T14:32:38;4.38;;;4.03;;
22995;SDS011;11664;49.774;8.650;2024-02-26T14:35:05;4.45;;;4.05;;
22995;SDS011;11664;49.774;8.650;2024-02-26T14:37:32;5.82;;;4.22;;
22995;SDS011;11664;49.774;8.650;2024-02-26T14:39:58;5.70;;;5.25;;
22995;SDS011;11664;49.774;8.650;2024-02-26T14:42:23;5.15;;;4.30;;
22995;SDS011;11664;49.774;8.650;2024-02-26T14:44:49;4.50;;;4.10;;
22995;SDS011;11664;49.774;8.650;2024-02-26T14:47:15;5.25;;;4.30;;
22995;SDS011;11664;49.774;8.650;2024-02-26T14:49:41;4.53;;;4.13;;
22995;SDS011;11664;49.774;8.650;2024-02-26T14:52:07;4.32;;;3.92;;
22995;SDS011;11664;49.774;8.650;2024-02-26T14:54:33;4.50;;;4.05;;
22995;SDS011;11664;49.774;8.650;2024-02-26T14:57:02;4.50;;;4.10;;
22995;SDS011;11664;49.774;8.650;2024-02-26T14:59:29;5.30;;;4.82;;
22995;SDS011;11664;49.774;8.650;2024-02-26T15:01:56;8.07;;;7.47;;